Time;durP1;ratioP1;P1;durP2;ratioP2;P2;SDS_P1;SDS_P2;PMS_P1;PMS_P2;Temp;Humidity;BMP_temperature;BMP_pressure;BME280_temperature;BME280_humidity;BME280_pressure;Samples;Min_cycle;Max_cycle;Signal;HPM_P1;HPM_P2
2022/02/02 00:00:40;;;;;;;32.47;7.45;;;;;;;;;;5113507;27;20929;-82
2022/02/02 00:03:10;;;;;;;25.90;6.97;;;;;;;;;;5115337;27;20464;-81
2022/02/02 00:06:27;;;;;;;27.50;7.18;;;;;;;;;;5096165;28;20381;-83
2022/02/02 00:13:32;;;;;;;29.85;7.68;;;6.30;99.90;;;;;;5109362;27;20381;-81
2022/02/02 00:21:16;;;;;;;24.90;6.57;;;6.30;99.90;;;;;;5106325;28;20403;-82
2022/02/02 00:23:46;;;;;;;25.48;7.65;;;6.30;99.90;;;;;;5104951;28;20374;-82
2022/02/02 00:26:18;;;;;;;29.10;7.40;;;6.30;99.90;;;;;;5090881;28;20732;-81
2022/02/02 00:28:48;;;;;;;33.08;7.55;;;6.20;99.90;;;;;;5090162;28;20410;-81
2022/02/02 00:31:21;;;;;;;32.88;8.50;;;6.20;99.90;;;;;;5109082;28;20418;-82
2022/02/02 00:33:56;;;;;;;32.95;8.70;;;6.20;99.90;;;;;;5089864;28;20394;-81
2022/02/02 00:36:25;;;;;;;29.95;8.50;;;6.30;99.90;;;;;;5101835;28;20390;-81
2022/02/02 00:38:52;;;;;;;33.20;8.45;;;6.30;99.90;;;;;;5088750;28;20454;-82
2022/02/02 00:41:18;;;;;;;35.05;8.45;;;6.30;99.90;;;;;;5089425;28;20411;-81
2022/02/02 00:43:46;;;;;;;38.30;8.47;;;6.30;99.90;;;;;;5109041;28;20394;-82
2022/02/02 00:46:13;;;;;;;34.42;8.75;;;6.20;99.90;;;;;;5107365;28;20880;-81
2022/02/02 00:48:38;;;;;;;31.65;7.70;;;6.20;99.90;;;;;;5091445;28;20398;-81
2022/02/02 00:51:04;;;;;;;32.57;8.77;;;6.20;99.90;;;;;;5088208;28;20379;-82
2022/02/02 00:53:30;;;;;;;32.90;8.63;;;6.20;99.90;;;;;;5091002;28;20377;-82
2022/02/02 00:55:55;;;;;;;34.73;8.83;;;6.20;99.90;;;;;;5084184;28;20524;-81
2022/02/02 00:58:21;;;;;;;37.67;9.50;;;6.20;99.90;;;;;;5110496;28;20416;-81
2022/02/02 01:00:47;;;;;;;33.63;8.60;;;6.20;99.90;;;;;;5088629;28;20398;-80
2022/02/02 01:03:13;;;;;;;33.42;7.90;;;6.30;99.90;;;;;;5106462;28;20364;-81
2022/02/02 01:05:39;;;;;;;31.98;9.02;;;6.30;99.90;;;;;;5103674;28;20382;-81
2022/02/02 01:10:38;;;;;;;31.98;8.55;;;6.20;99.90;;;;;;5108589;28;20382;-81
2022/02/02 01:18:26;;;;;;;33.17;8.40;;;6.10;99.90;;;;;;5105978;28;20419;-82
2022/02/02 01:28:35;;;;;;;31.00;8.13;;;6.20;99.90;;;;;;5107655;28;20386;-82
2022/02/02 01:31:01;;;;;;;26.23;7.35;;;6.20;99.90;;;;;;5105294;28;20395;-82
2022/02/02 01:33:28;;;;;;;30.40;7.40;;;6.20;99.90;;;;;;5091044;28;20890;-82
2022/02/02 01:35:54;;;;;;;31.58;8.48;;;6.20;99.90;;;;;;5084179;28;20467;-81
2022/02/02 01:38:21;;;;;;;33.93;8.67;;;6.20;99.90;;;;;;5090009;28;20445;-82
2022/02/02 01:40:54;;;;;;;32.03;8.57;;;6.10;99.90;;;;;;5109067;28;20507;-81
2022/02/02 01:43:26;;;;;;;29.77;8.18;;;6.00;99.90;;;;;;5089760;28;20398;-81
2022/02/02 01:46:09;;;;;;;27.23;7.82;;;6.00;99.90;;;;;;5106859;28;20403;-82
2022/02/02 01:51:14;;;;;;;33.63;7.65;;;6.10;99.90;;;;;;5113810;27;20388;-82
2022/02/02 01:56:16;;;;;;;24.55;7.70;;;6.10;99.90;;;;;;5115649;27;20387;-82
2022/02/02 01:59:01;;;;;;;31.43;7.73;;;6.10;99.90;;;;;;5109384;28;20420;-83
2022/02/02 02:01:29;;;;;;;30.23;7.88;;;6.10;99.90;;;;;;5078638;28;20418;-81
2022/02/02 02:03:55;;;;;;;28.83;7.70;;;6.20;99.90;;;;;;5097743;28;20388;-81
2022/02/02 02:06:21;;;;;;;37.42;8.32;;;6.20;99.90;;;;;;5091375;28;20459;-82
2022/02/02 02:08:47;;;;;;;36.80;8.60;;;6.10;99.90;;;;;;5090999;28;20499;-81
2022/02/02 02:11:18;;;;;;;35.55;8.68;;;6.00;99.90;;;;;;5098683;28;20471;-81
2022/02/02 02:16:28;;;;;;;31.25;8.40;;;5.90;99.90;;;;;;5109327;28;20417;-81
2022/02/02 02:18:57;;;;;;;32.92;7.65;;;5.90;99.90;;;;;;5103610;28;20870;-81
2022/02/02 02:21:22;;;;;;;35.78;8.50;;;5.90;99.90;;;;;;5083246;28;20536;-81
2022/02/02 02:23:49;;;;;;;35.30;8.98;;;5.90;99.90;;;;;;5085925;28;20469;-81
2022/02/02 02:26:25;;;;;;;30.48;8.40;;;5.80;99.90;;;;;;5098418;28;20476;-82
2022/02/02 02:37:05;;;;;;;43.63;10.27;;;5.90;99.90;;;;;;5101883;28;20395;-82
2022/02/02 02:39:44;;;;;;;34.75;8.93;;;5.90;99.90;;;;;;5092313;28;20453;-83
2022/02/02 02:55:56;;;;;;;48.47;10.45;;;5.80;99.90;;;;;;5097368;28;20796;-82
2022/02/02 04:06:22;;;;;;;42.33;10.90;;;6.00;99.90;;;;;;5104948;28;20522;-83
2022/02/02 04:08:48;;;;;;;39.25;9.55;;;6.00;99.90;;;;;;5070485;28;20400;-81
2022/02/02 04:11:21;;;;;;;44.03;9.93;;;6.00;99.90;;;;;;5103101;28;20418;-82
2022/02/02 04:54:56;;;;;;;30.08;8.23;;;6.30;99.90;;;;;;5095224;28;20383;-82
2022/02/02 05:05:49;;;;;;;34.55;9.10;;;6.80;99.90;;;;;;5097562;28;20391;-82
2022/02/02 05:08:39;;;;;;;36.40;8.73;;;6.60;99.90;;;;;;5077168;28;20402;-81
2022/02/02 05:11:37;;;;;;;36.40;9.50;;;6.50;99.90;;;;;;5096325;28;20547;-83
2022/02/02 05:41:10;;;;;;;32.35;8.43;;;6.50;99.90;;;;;;5097315;28;20940;-81
2022/02/02 05:44:14;;;;;;;26.23;7.70;;;6.40;99.90;;;;;;5097834;28;20390;-81
2022/02/02 05:49:31;;;;;;;35.00;9.00;;;6.10;99.90;;;;;;5098187;28;20900;-82
2022/02/02 05:51:55;;;;;;;32.20;8.05;;;5.90;99.90;;;;;;5097205;28;20392;-82
2022/02/02 05:54:21;;;;;;;28.02;7.47;;;5.60;99.90;;;;;;5102914;28;20397;-82
2022/02/02 05:56:49;;;;;;;32.30;8.40;;;5.50;99.90;;;;;;5104089;28;20375;-81
2022/02/02 05:59:24;;;;;;;32.45;7.47;;;5.90;99.90;;;;;;5098445;28;20387;-81
2022/02/02 06:01:53;;;;;;;28.05;7.22;;;5.50;99.90;;;;;;5096916;28;20552;-82
2022/02/02 06:04:30;;;;;;;31.80;7.57;;;5.40;99.90;;;;;;5100212;28;20452;-81
2022/02/02 06:06:59;;;;;;;30.00;7.25;;;5.30;99.90;;;;;;5095057;28;20479;-81
2022/02/02 06:09:29;;;;;;;27.02;7.03;;;5.40;99.90;;;;;;5091192;28;20380;-81
2022/02/02 06:11:55;;;;;;;35.13;7.47;;;5.50;99.90;;;;;;5090423;28;20380;-81
2022/02/02 06:14:29;;;;;;;29.60;7.37;;;5.50;99.90;;;;;;5090592;28;20376;-81
2022/02/02 06:17:01;;;;;;;27.98;7.50;;;5.50;99.90;;;;;;5093214;28;20471;-81
2022/02/02 06:19:27;;;;;;;25.38;6.82;;;5.50;99.90;;;;;;5092108;28;20400;-81
2022/02/02 06:22:10;;;;;;;30.57;7.53;;;5.60;99.90;;;;;;5102767;28;21130;-81
2022/02/02 06:24:59;;;;;;;27.55;7.50;;;5.80;99.90;;;;;;5090571;28;20403;-81
2022/02/02 06:27:27;;;;;;;32.63;7.70;;;;;;;;;;5076103;28;20399;-82
2022/02/02 06:29:57;;;;;;;30.63;7.72;;;;;;;;;;5099265;28;20376;-81
2022/02/02 06:32:26;;;;;;;30.35;6.78;;;5.80;99.90;;;;;;5100124;28;20404;-81
2022/02/02 06:35:02;;;;;;;29.25;6.80;;;5.70;99.90;;;;;;5079706;28;20399;-80
2022/02/02 06:37:28;;;;;;;28.58;7.70;;;5.90;99.90;;;;;;5073338;28;20765;-80
2022/02/02 06:39:55;;;;;;;27.83;7.07;;;5.90;99.90;;;;;;5075057;28;20384;-81
2022/02/02 06:42:21;;;;;;;31.10;7.63;;;5.90;99.90;;;;;;5091431;28;20479;-81
2022/02/02 06:44:47;;;;;;;28.23;7.53;;;5.80;99.90;;;;;;5092805;28;20511;-80
2022/02/02 06:47:13;;;;;;;29.92;7.45;;;6.00;99.90;;;;;;5090570;28;20392;-80
2022/02/02 06:49:42;;;;;;;26.58;7.38;;;5.90;99.90;;;;;;5100511;28;20403;-80
2022/02/02 06:52:17;;;;;;;26.30;7.43;;;5.90;99.90;;;;;;5105241;28;20386;-80
2022/02/02 06:55:12;;;;;;;27.75;7.80;;;5.90;99.90;;;;;;5093853;28;20424;-81
2022/02/02 06:57:46;;;;;;;24.60;6.70;;;5.80;99.90;;;;;;5075443;28;20437;-81
2022/02/02 07:00:28;;;;;;;26.70;7.43;;;5.80;99.90;;;;;;5088837;28;20379;-80
2022/02/02 07:03:07;;;;;;;30.67;7.30;;;5.80;99.90;;;;;;5083124;28;20413;-81
2022/02/02 07:05:51;;;;;;;32.53;8.02;;;5.70;99.90;;;;;;5107443;28;20817;-80
2022/02/02 07:08:40;;;;;;;26.02;6.97;;;5.90;99.90;;;;;;5090090;28;20444;-81
2022/02/02 07:11:23;;;;;;;30.67;7.72;;;5.90;99.90;;;;;;5098326;28;20400;-81
2022/02/02 07:19:11;;;;;;;24.13;6.43;;;6.40;99.90;;;;;;5102019;28;20422;-80
2022/02/02 07:32:27;;;;;;;23.27;6.70;;;;;;;;;;5111116;28;20378;-82
2022/02/02 07:35:12;;;;;;;27.03;7.33;;;;;;;;;;5083876;28;20391;-82
2022/02/02 07:37:46;;;;;;;25.15;6.50;;;;;;;;;;5101970;28;20378;-81
2022/02/02 07:40:12;;;;;;;20.20;6.15;;;;;;;;;;5098209;28;20396;-80
2022/02/02 07:42:45;;;;;;;22.40;6.18;;;;;;;;;;5086057;28;20406;-81
2022/02/02 07:45:12;;;;;;;22.80;5.85;;;;;;;;;;5075393;28;20431;-80
2022/02/02 07:47:45;;;;;;;20.27;5.13;;;;;;;;;;5088487;28;21179;-80
2022/02/02 07:50:12;;;;;;;23.53;5.80;;;6.40;99.90;;;;;;5105185;28;20430;-81
2022/02/02 07:52:39;;;;;;;23.23;5.60;;;6.50;99.90;;;;;;5100722;28;20405;-81
2022/02/02 07:55:08;;;;;;;21.50;6.03;;;;;;;;;;5107713;28;20389;-81
2022/02/02 07:57:36;;;;;;;19.88;5.38;;;;;;;;;;5108543;28;20549;-80
2022/02/02 08:00:07;;;;;;;18.93;5.30;;;;;;;;;;5095370;28;20455;-81
2022/02/02 08:02:59;;;;;;;20.50;5.57;;;;;;;;;;5092360;28;20392;-83
2022/02/02 08:05:26;;;;;;;18.95;4.95;;;7.00;99.90;;;;;;5075530;28;20404;-81
2022/02/02 08:10:32;;;;;;;15.95;4.93;;;;;;;;;;5089220;28;20874;-82
2022/02/02 08:13:09;;;;;;;18.05;4.90;;;;;;;;;;5070693;28;20364;-82
2022/02/02 08:15:35;;;;;;;18.80;4.70;;;;;;;;;;5071758;28;20380;-82
2022/02/02 08:18:01;;;;;;;20.83;5.63;;;;;;;;;;5077134;28;21592;-82
2022/02/02 08:20:28;;;;;;;15.60;4.55;;;;;;;;;;5089866;28;20447;-82
2022/02/02 08:22:55;;;;;;;17.85;4.68;;;;;;;;;;5095291;28;20368;-80
2022/02/02 08:25:29;;;;;;;21.42;5.30;;;;;;;;;;5092678;28;20372;-81
2022/02/02 08:28:03;;;;;;;15.93;4.90;;;;;;;;;;5071427;28;20384;-81
2022/02/02 08:30:30;;;;;;;15.10;4.57;;;;;;;;;;5090098;28;20377;-81
2022/02/02 08:32:57;;;;;;;16.25;4.63;;;;;;;;;;5070490;28;20391;-81
2022/02/02 08:35:28;;;;;;;17.02;4.72;;;;;;;;;;5070956;28;20859;-82
2022/02/02 08:38:05;;;;;;;16.80;4.53;;;;;;;;;;5077986;28;20882;-81
2022/02/02 08:41:18;;;;;;;16.20;4.07;;;;;;;;;;5070719;28;20408;-81
2022/02/02 08:43:32;;;;;;;15.65;4.25;;;;;;;;;;5096956;28;20390;-80
2022/02/02 08:46:05;;;;;;;16.50;4.63;;;;;;;;;;5093607;28;20422;-82
2022/02/02 08:48:32;;;;;;;14.70;4.13;;;;;;;;;;5112472;28;20798;-82
2022/02/02 08:51:02;;;;;;;13.93;3.63;;;;;;;;;;5112357;28;20375;-81
2022/02/02 08:53:36;;;;;;;13.85;4.25;;;;;;;;;;5095028;28;20374;-80
2022/02/02 09:01:03;;;;;;;16.30;4.17;;;;;;;;;;5093947;27;20408;-80
2022/02/02 09:06:15;;;;;;;13.73;4.13;;;;;;;;;;5109845;28;20876;-81
2022/02/02 09:08:44;;;;;;;17.33;4.53;;;;;;;;;;5114961;28;20397;-80
2022/02/02 09:24:46;;;;;;;13.52;3.83;;;6.50;99.90;;;;;;5107394;28;20780;-81
2022/02/02 09:34:56;;;;;;;17.00;4.33;;;5.90;99.90;;;;;;5103514;28;20376;-81
2022/02/02 09:37:23;;;;;;;14.05;4.15;;;5.90;99.90;;;;;;5092601;28;20391;-82
2022/02/02 09:39:57;;;;;;;16.20;3.92;;;6.00;99.90;;;;;;5075560;28;20388;-80
2022/02/02 09:42:23;;;;;;;16.65;4.07;;;6.00;99.90;;;;;;5075159;28;20408;-81
2022/02/02 09:44:53;;;;;;;18.60;4.80;;;6.00;99.90;;;;;;5074427;28;20390;-82
2022/02/02 09:47:34;;;;;;;15.45;3.80;;;6.10;99.90;;;;;;5102992;28;20485;-80
2022/02/02 09:50:12;;;;;;;17.52;4.85;;;6.30;99.90;;;;;;5111721;28;20379;-80
2022/02/02 09:52:42;;;;;;;16.50;4.57;;;6.40;99.90;;;;;;5093835;28;20447;-81
2022/02/02 09:55:41;;;;;;;16.17;4.93;;;6.60;99.90;;;;;;5080692;28;20518;-81
2022/02/02 10:01:26;;;;;;;18.08;4.53;;;6.70;99.90;;;;;;5066063;28;20383;-81
2022/02/02 10:04:19;;;;;;;13.15;4.50;;;6.80;99.90;;;;;;5109339;28;21098;-81
2022/02/02 10:06:59;;;;;;;18.30;5.07;;;;;;;;;;5089408;28;20384;-82
2022/02/02 10:09:47;;;;;;;15.45;4.40;;;;;;;;;;5086561;28;20383;-82
2022/02/02 10:15:18;;;;;;;17.37;4.80;;;;;;;;;;5070331;28;20402;-81
2022/02/02 10:17:45;;;;;;;15.63;4.43;;;;;;;;;;5106024;28;20399;-81
2022/02/02 10:20:21;;;;;;;16.45;4.38;;;;;;;;;;5085942;28;20483;-83
2022/02/02 10:22:49;;;;;;;19.70;5.32;;;;;;;;;;5101415;27;20408;-82
2022/02/02 10:25:28;;;;;;;18.15;4.88;;;;;;;;;;5082703;27;20389;-82
2022/02/02 10:28:11;;;;;;;14.17;4.03;;;;;;;;;;5089381;28;20457;-83
2022/02/02 10:30:40;;;;;;;15.27;4.55;;;;;;;;;;5109568;28;20406;-83
2022/02/02 10:33:10;;;;;;;19.03;4.47;;;;;;;;;;5087023;28;20402;-85
2022/02/02 10:35:38;;;;;;;18.67;4.50;;;;;;;;;;5100252;28;20406;-83
2022/02/02 10:38:14;;;;;;;19.00;4.85;;;;;;;;;;5099044;27;20385;-83
2022/02/02 10:47:15;;;;;;;15.85;4.40;;;;;;;;;;5091008;28;20433;-82
2022/02/02 10:49:23;;;;;;;18.50;4.60;;;;;;;;;;5080417;28;20392;-83
2022/02/02 10:51:56;;;;;;;15.80;4.10;;;;;;;;;;5090530;28;21087;-84
2022/02/02 11:07:55;;;;;;;12.38;3.65;;;6.90;99.90;;;;;;5104998;28;20389;-82
2022/02/02 11:10:23;;;;;;;12.85;3.85;;;7.00;99.90;;;;;;5104444;28;20380;-83
2022/02/02 11:12:50;;;;;;;13.98;3.90;;;7.20;99.90;;;;;;5080264;28;20382;-83
2022/02/02 11:15:46;;;;;;;13.80;3.35;;;7.20;99.90;;;;;;5090427;28;20386;-82
2022/02/02 11:18:17;;;;;;;13.20;3.50;;;7.30;99.90;;;;;;5086470;28;20392;-82
2022/02/02 11:20:42;;;;;;;13.02;3.60;;;7.30;99.90;;;;;;5099244;28;20392;-83
2022/02/02 11:23:09;;;;;;;11.40;3.57;;;7.40;99.90;;;;;;5103657;28;21228;-83
2022/02/02 11:25:37;;;;;;;12.68;3.47;;;7.40;99.90;;;;;;5100939;28;20723;-81
2022/02/02 11:28:21;;;;;;;13.45;3.55;;;7.40;99.90;;;;;;5086297;28;20731;-81
2022/02/02 11:30:49;;;;;;;10.00;3.53;;;7.50;99.90;;;;;;5100224;28;20395;-81
2022/02/02 11:33:14;;;;;;;11.38;3.17;;;7.50;99.90;;;;;;5090038;28;20805;-81
2022/02/02 11:35:50;;;;;;;13.35;3.38;;;7.50;99.90;;;;;;5108461;28;20398;-80
2022/02/02 11:38:32;;;;;;;12.00;3.60;;;7.40;99.90;;;;;;5108870;28;20419;-81
2022/02/02 11:44:05;;;;;;;10.10;3.45;;;7.50;99.90;;;;;;5108768;28;20383;-82
2022/02/02 11:49:50;;;;;;;9.75;3.60;;;7.50;99.90;;;;;;5090613;28;20400;-81
2022/02/02 11:52:35;;;;;;;12.50;3.22;;;;;;;;;;5070390;28;20818;-82
2022/02/02 11:55:03;;;;;;;13.88;3.63;;;7.60;99.90;;;;;;5090134;28;20367;-80
2022/02/02 11:57:35;;;;;;;11.35;3.13;;;7.60;99.90;;;;;;5071589;28;20383;-81
2022/02/02 12:00:20;;;;;;;7.82;2.63;;;;;;;;;;5072480;28;20449;-81
2022/02/02 13:00:20;;;;;;;8.50;2.47;;;7.50;99.90;;;;;;5094966;28;20478;-83
2022/02/02 13:02:46;;;;;;;6.95;2.10;;;7.60;99.90;;;;;;5094799;28;20884;-83
2022/02/02 13:05:12;;;;;;;6.45;1.98;;;7.70;99.90;;;;;;5097648;28;20376;-82
2022/02/02 13:07:40;;;;;;;4.72;1.90;;;7.70;99.90;;;;;;5093652;28;20400;-85
2022/02/02 13:10:09;;;;;;;7.03;2.20;;;7.70;99.90;;;;;;5096725;28;20858;-84
2022/02/02 13:12:39;;;;;;;6.13;2.15;;;7.70;99.90;;;;;;5095610;28;20459;-83
2022/02/02 13:24:17;;;;;;;6.20;2.00;;;7.40;99.90;;;;;;5101046;28;20465;-85
2022/02/02 13:29:24;;;;;;;9.48;3.20;;;7.50;99.90;;;;;;5103962;28;20387;-83
2022/02/02 13:51:33;;;;;;;4.30;1.70;;;7.20;99.90;;;;;;5101711;28;20750;-80
2022/02/02 13:54:35;;;;;;;12.98;2.97;;;7.10;99.90;;;;;;5088016;28;20394;-81
2022/02/02 14:04:38;;;;;;;9.52;3.00;;;7.30;99.90;;;;;;5106263;28;20392;-82
2022/02/02 14:09:58;;;;;;;9.77;2.67;;;7.20;99.90;;;;;;5103722;28;20385;-83
2022/02/02 14:31:23;;;;;;;9.25;3.20;;;6.10;99.90;;;;;;5112812;28;20390;-81
2022/02/02 14:33:59;;;;;;;13.65;3.17;;;6.00;99.90;;;;;;5112988;28;20874;-81
2022/02/02 14:36:29;;;;;;;10.82;3.10;;;5.70;99.90;;;;;;5112235;28;20413;-81
2022/02/02 14:39:12;;;;;;;9.75;2.78;;;5.70;99.90;;;;;;5111865;28;20386;-82
2022/02/02 14:41:43;;;;;;;10.63;3.15;;;5.60;99.90;;;;;;5103552;28;20416;-83
2022/02/02 14:44:16;;;;;;;11.07;2.90;;;5.70;99.90;;;;;;5091716;28;20390;-84
2022/02/02 14:46:53;;;;;;;11.82;3.13;;;5.80;99.90;;;;;;5096038;28;20449;-85
2022/02/02 14:51:57;;;;;;;12.20;3.20;;;5.90;99.90;;;;;;5092001;28;20387;-83
2022/02/02 15:31:40;;;;;;;11.40;3.10;;;5.50;99.90;;;;;;5099249;28;20473;-84
2022/02/02 15:34:10;;;;;;;11.38;3.33;;;5.50;99.90;;;;;;5097144;28;20384;-83
2022/02/02 15:39:10;;;;;;;9.00;2.90;;;5.30;99.90;;;;;;5093742;28;20492;-83
2022/02/02 15:41:46;;;;;;;11.38;3.20;;;5.30;99.90;;;;;;5089643;28;20400;-82
2022/02/02 16:05:28;;;;;;;10.15;3.40;;;4.70;99.90;;;;;;5114301;28;20383;-82
2022/02/02 16:07:56;;;;;;;11.85;4.03;;;4.60;99.90;;;;;;5092389;28;20394;-82
2022/02/02 16:10:37;;;;;;;15.30;3.58;;;4.50;99.90;;;;;;5113019;28;20383;-82
2022/02/02 16:13:03;;;;;;;11.77;3.50;;;4.50;99.90;;;;;;5096433;28;20390;-82
2022/02/02 16:15:31;;;;;;;12.25;3.20;;;4.50;99.90;;;;;;5104511;28;20387;-84
2022/02/02 16:18:09;;;;;;;12.93;3.72;;;4.60;99.90;;;;;;5091581;28;20451;-85
2022/02/02 16:37:08;;;;;;;13.87;3.97;;;4.90;99.90;;;;;;5032455;28;20377;-83
2022/02/02 16:39:45;;;;;;;17.42;3.75;;;4.90;99.90;;;;;;5009313;28;20512;-82
2022/02/02 16:44:55;;;;;;;15.38;4.15;;;4.50;99.90;;;;;;5094199;28;20377;-83
2022/02/02 16:47:22;;;;;;;13.48;3.63;;;4.40;99.90;;;;;;5108704;28;20383;-82
2022/02/02 16:49:48;;;;;;;17.00;3.63;;;4.30;99.90;;;;;;5087151;28;20391;-82
2022/02/02 16:52:16;;;;;;;13.43;3.80;;;4.20;99.90;;;;;;5101323;28;20395;-81
2022/02/02 16:54:44;;;;;;;15.83;4.30;;;4.20;99.90;;;;;;5068481;28;20465;-82
2022/02/02 16:58:03;;;;;;;15.77;3.80;;;4.10;99.90;;;;;;5069234;28;20387;-80
2022/02/02 17:35:01;;;;;;;16.38;4.72;;;4.10;99.90;;;;;;5090801;28;20392;-81
2022/02/02 17:40:20;;;;;;;13.40;5.35;;;4.20;99.90;;;;;;5111762;28;20374;-82
2022/02/02 18:00:16;;;;;;;17.45;5.50;;;4.30;99.90;;;;;;5111497;28;20454;-80
2022/02/02 18:20:54;;;;;;;10.40;3.38;;;3.40;99.90;;;;;;5111117;28;20370;-82
2022/02/02 18:28:56;;;;;;;11.53;3.03;;;3.30;99.90;;;;;;5111114;28;20374;-81
2022/02/02 18:31:42;;;;;;;10.43;2.90;;;3.30;99.90;;;;;;5097195;28;20407;-82
2022/02/02 18:37:46;;;;;;;9.75;2.75;;;3.30;99.90;;;;;;5110633;28;20400;-81
2022/02/02 18:47:49;;;;;;;10.07;3.22;;;3.50;99.90;;;;;;5110839;28;20390;-81
2022/02/02 19:38:16;;;;;;;12.30;3.17;;;3.40;99.90;;;;;;5109613;28;20394;-84
2022/02/02 19:40:41;;;;;;;13.60;3.15;;;3.50;99.90;;;;;;5102154;28;20373;-82
2022/02/02 19:55:12;;;;;;;14.50;3.72;;;3.40;99.90;;;;;;5091760;28;20483;-83
2022/02/02 20:12:26;;;;;;;13.25;3.92;;;3.00;99.90;;;;;;5098429;28;20887;-83
2022/02/02 20:14:52;;;;;;;11.37;3.30;;;2.90;99.90;;;;;;5105994;27;20467;-84
2022/02/02 20:17:23;;;;;;;13.60;3.72;;;2.90;99.90;;;;;;5086532;28;20479;-82
2022/02/02 20:19:57;;;;;;;11.80;3.22;;;2.90;99.90;;;;;;5090986;28;20393;-85
2022/02/02 20:22:26;;;;;;;12.95;3.50;;;2.80;99.90;;;;;;5081165;28;20411;-85
2022/02/02 20:25:01;;;;;;;13.35;3.50;;;2.80;99.90;;;;;;5092521;28;20429;-84
2022/02/02 20:27:30;;;;;;;11.70;3.10;;;2.80;99.90;;;;;;5072824;28;20395;-83
2022/02/02 20:29:55;;;;;;;13.23;3.22;;;2.80;99.90;;;;;;5085787;28;20481;-84
2022/02/02 20:32:21;;;;;;;14.77;3.53;;;2.80;99.90;;;;;;5085404;28;20757;-83
2022/02/02 20:34:47;;;;;;;12.15;3.45;;;2.70;99.90;;;;;;5105485;28;20741;-82
2022/02/02 20:37:16;;;;;;;14.63;3.50;;;2.70;99.90;;;;;;5104036;28;20382;-80
2022/02/02 20:40:02;;;;;;;11.95;3.10;;;2.60;99.90;;;;;;5105485;28;20386;-83
2022/02/02 21:08:58;;;;;;;11.95;4.38;;;2.20;99.90;;;;;;5093152;28;20368;-80
2022/02/02 21:14:22;;;;;;;12.65;3.65;;;2.10;99.90;;;;;;5058106;28;20384;-80
2022/02/02 21:16:48;;;;;;;13.88;3.90;;;2.00;99.90;;;;;;5097922;28;20477;-81
2022/02/02 21:19:25;;;;;;;19.25;4.53;;;1.90;99.90;;;;;;5075530;28;20846;-81
2022/02/02 21:21:55;;;;;;;13.48;3.78;;;1.90;99.90;;;;;;5074847;28;20412;-82
2022/02/02 21:27:15;;;;;;;15.45;3.97;;;1.90;99.90;;;;;;5111653;28;20411;-82
2022/02/02 21:29:38;;;;;;;15.57;4.00;;;1.80;99.90;;;;;;5114157;28;20748;-82
2022/02/02 21:32:04;;;;;;;15.07;4.43;;;1.90;99.90;;;;;;5107189;28;20390;-82
2022/02/02 21:34:30;;;;;;;17.23;4.32;;;1.80;99.90;;;;;;5092392;28;20380;-82
2022/02/02 21:37:02;;;;;;;15.55;4.25;;;1.70;99.90;;;;;;5092819;28;20364;-82
2022/02/02 21:39:29;;;;;;;14.30;4.35;;;1.70;99.90;;;;;;5094732;28;20392;-82
2022/02/02 21:41:56;;;;;;;16.08;4.47;;;1.70;99.90;;;;;;5101432;28;20470;-82
2022/02/02 21:44:23;;;;;;;15.70;4.72;;;1.70;99.90;;;;;;5082380;28;20388;-83
2022/02/02 21:46:49;;;;;;;19.27;5.10;;;1.70;99.90;;;;;;5109802;28;20472;-83
2022/02/02 21:49:18;;;;;;;20.70;5.33;;;1.60;99.90;;;;;;5114408;28;20382;-83
2022/02/02 21:52:02;;;;;;;15.30;5.07;;;1.60;99.90;;;;;;5094896;28;20377;-85
2022/02/02 21:54:28;;;;;;;15.02;4.88;;;1.50;99.90;;;;;;5105305;28;20482;-83
2022/02/02 21:56:55;;;;;;;19.85;5.25;;;1.50;99.90;;;;;;5091327;28;20439;-83
2022/02/02 21:59:21;;;;;;;16.88;4.25;;;1.50;99.90;;;;;;5076172;28;20924;-83
2022/02/02 22:01:46;;;;;;;19.98;5.03;;;1.50;99.90;;;;;;5094189;28;20479;-81
2022/02/02 22:04:12;;;;;;;18.30;4.53;;;1.40;99.90;;;;;;5104596;28;20382;-81
2022/02/02 22:06:37;;;;;;;14.43;4.93;;;1.40;99.90;;;;;;5118809;27;20381;-83
2022/02/02 22:09:04;;;;;;;20.63;5.40;;;1.40;99.90;;;;;;5123369;27;20448;-82
2022/02/02 22:11:30;;;;;;;19.38;6.28;;;1.40;99.90;;;;;;5133838;27;20369;-82
2022/02/02 22:14:03;;;;;;;25.13;6.78;;;1.30;99.90;;;;;;5096642;28;20421;-82
2022/02/02 22:16:28;;;;;;;23.48;6.95;;;1.30;99.90;;;;;;5098345;28;20397;-83
2022/02/02 22:18:55;;;;;;;23.35;7.65;;;1.30;99.90;;;;;;5106613;27;20384;-83
2022/02/02 22:21:21;;;;;;;19.75;6.85;;;1.20;99.90;;;;;;5114546;27;20407;-84
2022/02/02 22:23:47;;;;;;;21.58;6.45;;;1.10;99.90;;;;;;5104606;27;20400;-80
2022/02/02 22:26:14;;;;;;;22.88;6.25;;;1.10;99.90;;;;;;5109110;28;20489;-82
2022/02/02 22:28:39;;;;;;;22.60;7.18;;;1.10;99.90;;;;;;5115546;27;20390;-82
2022/02/02 22:31:05;;;;;;;22.00;8.50;;;1.10;99.90;;;;;;5089073;28;20398;-81
2022/02/02 22:33:32;;;;;;;24.50;8.95;;;1.10;99.90;;;;;;5123537;27;20946;-81
2022/02/02 22:36:00;;;;;;;25.77;8.90;;;1.10;99.90;;;;;;5100853;27;20424;-81
2022/02/02 22:38:27;;;;;;;23.83;7.95;;;1.00;99.90;;;;;;5117251;27;21083;-82
2022/02/02 22:40:55;;;;;;;17.90;7.00;;;1.00;99.90;;;;;;5096825;28;20421;-81
2022/02/02 22:43:21;;;;;;;18.70;6.28;;;1.10;99.90;;;;;;5092198;28;20434;-82
2022/02/02 22:45:48;;;;;;;22.67;6.20;;;1.00;99.90;;;;;;5132406;27;20366;-81
2022/02/02 22:48:17;;;;;;;20.58;6.30;;;1.00;99.90;;;;;;5104395;27;20782;-81
2022/02/02 22:50:45;;;;;;;20.38;6.20;;;1.00;99.90;;;;;;5102885;28;20432;-82
2022/02/02 22:53:11;;;;;;;19.02;6.15;;;1.00;99.90;;;;;;5112562;28;20868;-82
2022/02/02 22:55:38;;;;;;;20.80;6.97;;;1.00;99.90;;;;;;5108202;28;20429;-83
2022/02/02 22:58:04;;;;;;;21.98;6.63;;;0.90;99.90;;;;;;5115509;27;20441;-81
2022/02/02 23:00:34;;;;;;;26.00;6.97;;;1.00;99.90;;;;;;5107749;27;20878;-82
2022/02/02 23:03:03;;;;;;;21.00;6.85;;;0.90;99.90;;;;;;5096559;28;20527;-83
2022/02/02 23:05:38;;;;;;;24.02;7.32;;;0.90;99.90;;;;;;5125829;27;20444;-82
2022/02/02 23:08:07;;;;;;;21.65;6.50;;;0.80;99.90;;;;;;5114981;27;20397;-83
2022/02/02 23:10:34;;;;;;;21.13;7.10;;;0.90;99.90;;;;;;5101096;28;20416;-82
2022/02/02 23:13:00;;;;;;;18.63;6.07;;;0.80;99.90;;;;;;5124035;27;20385;-83
2022/02/02 23:15:34;;;;;;;22.42;5.80;;;0.80;99.90;;;;;;5096070;27;20955;-83
2022/02/02 23:18:10;;;;;;;15.60;4.97;;;0.70;99.90;;;;;;5107903;28;20394;-83
2022/02/02 23:20:36;;;;;;;20.80;5.13;;;0.70;99.90;;;;;;5099004;28;20386;-83
2022/02/02 23:23:04;;;;;;;20.15;5.38;;;0.60;99.90;;;;;;5126061;27;20455;-82
2022/02/02 23:25:32;;;;;;;17.67;4.13;;;0.70;99.90;;;;;;5111205;28;20408;-82
2022/02/02 23:27:58;;;;;;;21.92;5.00;;;0.70;99.90;;;;;;5110560;28;20511;-84
2022/02/02 23:30:24;;;;;;;16.90;4.20;;;0.60;99.90;;;;;;5110770;28;20387;-82
2022/02/02 23:32:50;;;;;;;23.80;5.30;;;0.60;99.90;;;;;;5093453;28;20389;-83
2022/02/02 23:35:16;;;;;;;19.83;4.67;;;0.60;99.90;;;;;;5110536;28;20409;-82
2022/02/02 23:37:41;;;;;;;21.53;5.33;;;0.60;99.90;;;;;;5112215;28;20385;-83
2022/02/02 23:40:10;;;;;;;22.43;6.20;;;0.50;99.90;;;;;;5112047;28;20367;-82
2022/02/02 23:42:38;;;;;;;20.37;5.00;;;0.50;99.90;;;;;;5114105;27;20402;-83
2022/02/02 23:45:07;;;;;;;19.60;4.88;;;0.60;99.90;;;;;;5090296;28;21384;-83
2022/02/02 23:47:46;;;;;;;17.75;5.13;;;0.60;99.90;;;;;;5111159;28;20449;-82
2022/02/02 23:50:15;;;;;;;23.35;5.20;;;0.60;99.90;;;;;;5089999;28;20379;-83
2022/02/02 23:52:51;;;;;;;16.65;5.10;;;0.60;99.90;;;;;;5103627;27;20816;-83
2022/02/02 23:55:31;;;;;;;23.90;5.55;;;0.60;99.90;;;;;;5104123;27;20378;-83
